sensor_id;sensor_type;location;lat;lon;timestamp;temperature;humidity
47514;DHT22;33951;51.988;5.910;2023-04-24T04:01:15;9.10;99.90
47514;DHT22;33951;51.988;5.910;2023-04-24T04:03:46;9.00;99.90
47514;DHT22;33951;51.988;5.910;2023-04-24T04:06:17;9.00;99.90
47514;DHT22;33951;51.988;5.910;2023-04-24T04:09:03;9.00;99.90
47514;DHT22;33951;51.988;5.910;2023-04-24T04:11:31;9.00;99.90
47514;DHT22;33951;51.988;5.910;2023-04-24T04:14:03;9.10;99.90
47514;DHT22;33951;51.988;5.910;2023-04-24T04:16:42;9.00;99.90
47514;DHT22;33951;51.988;5.910;2023-04-24T04:19:09;8.90;99.90
47514;DHT22;33951;51.988;5.910;2023-04-24T04:21:35;8.80;99.90
47514;DHT22;33951;51.988;5.910;2023-04-24T04:24:01;8.90;99.90
47514;DHT22;33951;51.988;5.910;2023-04-24T04:26:40;8.80;99.90
47514;DHT22;33951;51.988;5.910;2023-04-24T04:29:08;8.90;99.90
47514;DHT22;33951;51.988;5.910;2023-04-24T04:31:48;8.70;99.90
47514;DHT22;33951;51.988;5.910;2023-04-24T04:34:20;8.70;99.90
47514;DHT22;33951;51.988;5.910;2023-04-24T04:36:46;8.80;99.90
47514;DHT22;33951;51.988;5.910;2023-04-24T04:39:14;8.70;99.90
47514;DHT22;33951;51.988;5.910;2023-04-24T04:41:49;8.70;99.90
47514;DHT22;33951;51.988;5.910;2023-04-24T04:44:17;8.70;99.90
47514;DHT22;33951;51.988;5.910;2023-04-24T04:46:46;8.70;99.90
47514;DHT22;33951;51.988;5.910;2023-04-24T04:49:14;8.80;99.90
47514;DHT22;33951;51.988;5.910;2023-04-24T04:51:45;8.80;99.90
47514;DHT22;33951;51.988;5.910;2023-04-24T04:54:31;8.80;99.90
47514;DHT22;33951;51.988;5.910;2023-04-24T04:57:08;8.70;99.90
47514;DHT22;33951;51.988;5.910;2023-04-24T05:00:03;8.80;99.90
47514;DHT22;33951;51.988;5.910;2023-04-24T05:02:59;8.80;99.90
47514;DHT22;33951;51.988;5.910;2023-04-24T05:09:33;8.70;99.90
47514;DHT22;33951;51.988;5.910;2023-04-24T05:29:35;8.80;99.90
47514;DHT22;33951;51.988;5.910;2023-04-24T05:45:51;8.90;99.90
47514;DHT22;33951;51.988;5.910;2023-04-24T06:12:43;9.40;99.90
47514;DHT22;33951;51.988;5.910;2023-04-24T06:16:23;9.50;99.90
47514;DHT22;33951;51.988;5.910;2023-04-24T06:19:17;9.40;99.90
47514;DHT22;33951;51.988;5.910;2023-04-24T06:22:14;9.40;99.90
47514;DHT22;33951;51.988;5.910;2023-04-24T06:25:32;9.50;99.90
47514;DHT22;33951;51.988;5.910;2023-04-24T06:28:48;9.60;99.90
47514;DHT22;33951;51.988;5.910;2023-04-24T06:31:57;9.50;99.90
47514;DHT22;33951;51.988;5.910;2023-04-24T06:34:52;9.50;99.90
47514;DHT22;33951;51.988;5.910;2023-04-24T06:38:15;9.40;99.90
47514;DHT22;33951;51.988;5.910;2023-04-24T06:41:17;9.40;99.90
47514;DHT22;33951;51.988;5.910;2023-04-24T06:44:03;9.40;99.90
47514;DHT22;33951;51.988;5.910;2023-04-24T06:46:42;9.40;99.90
47514;DHT22;33951;51.988;5.910;2023-04-24T06:52:43;9.40;99.90
47514;DHT22;33951;51.988;5.910;2023-04-24T06:55:12;9.40;99.90
47514;DHT22;33951;51.988;5.910;2023-04-24T06:57:52;9.40;99.90
47514;DHT22;33951;51.988;5.910;2023-04-24T07:01:06;9.50;99.90
47514;DHT22;33951;51.988;5.910;2023-04-24T07:03:52;9.40;99.90
47514;DHT22;33951;51.988;5.910;2023-04-24T07:06:26;9.30;99.90
47514;DHT22;33951;51.988;5.910;2023-04-24T07:09:03;9.30;99.90
47514;DHT22;33951;51.988;5.910;2023-04-24T07:11:54;9.40;99.90
47514;DHT22;33951;51.988;5.910;2023-04-24T07:14:22;9.40;99.90
47514;DHT22;33951;51.988;5.910;2023-04-24T07:17:14;9.40;99.90
47514;DHT22;33951;51.988;5.910;2023-04-24T07:26:52;9.30;99.90
47514;DHT22;33951;51.988;5.910;2023-04-24T07:28:52;9.10;99.90
47514;DHT22;33951;51.988;5.910;2023-04-24T07:34:23;9.20;99.90
47514;DHT22;33951;51.988;5.910;2023-04-24T07:40:12;9.30;99.90
47514;DHT22;33951;51.988;5.910;2023-04-24T07:42:54;9.20;99.90
47514;DHT22;33951;51.988;5.910;2023-04-24T07:45:38;9.10;99.90
47514;DHT22;33951;51.988;5.910;2023-04-24T07:48:14;9.00;99.90
47514;DHT22;33951;51.988;5.910;2023-04-24T07:50:45;8.90;99.90
47514;DHT22;33951;51.988;5.910;2023-04-24T07:53:34;8.80;99.90
47514;DHT22;33951;51.988;5.910;2023-04-24T07:56:07;8.70;99.90
47514;DHT22;33951;51.988;5.910;2023-04-24T07:58:41;8.70;99.90
47514;DHT22;33951;51.988;5.910;2023-04-24T08:01:06;8.70;99.90
47514;DHT22;33951;51.988;5.910;2023-04-24T08:03:34;8.60;99.90
47514;DHT22;33951;51.988;5.910;2023-04-24T08:06:06;8.60;99.90
47514;DHT22;33951;51.988;5.910;2023-04-24T08:08:58;8.60;99.90
47514;DHT22;33951;51.988;5.910;2023-04-24T08:11:51;8.50;99.90
47514;DHT22;33951;51.988;5.910;2023-04-24T08:20:35;8.40;99.90
47514;DHT22;33951;51.988;5.910;2023-04-24T08:26:55;8.50;99.90
47514;DHT22;33951;51.988;5.910;2023-04-24T08:32:32;8.40;99.90
47514;DHT22;33951;51.988;5.910;2023-04-24T08:35:11;8.40;99.90
47514;DHT22;33951;51.988;5.910;2023-04-24T08:37:55;8.40;99.90
47514;DHT22;33951;51.988;5.910;2023-04-24T08:40:39;8.40;99.90
47514;DHT22;33951;51.988;5.910;2023-04-24T08:43:13;8.40;99.90
47514;DHT22;33951;51.988;5.910;2023-04-24T08:48:36;8.40;99.90
47514;DHT22;33951;51.988;5.910;2023-04-24T08:51:15;8.40;99.90
47514;DHT22;33951;51.988;5.910;2023-04-24T08:53:54;8.50;99.90
47514;DHT22;33951;51.988;5.910;2023-04-24T08:56:25;8.50;99.90
47514;DHT22;33951;51.988;5.910;2023-04-24T08:59:02;8.50;99.90
47514;DHT22;33951;51.988;5.910;2023-04-24T09:01:53;8.60;99.90
47514;DHT22;33951;51.988;5.910;2023-04-24T09:04:33;8.40;99.90
47514;DHT22;33951;51.988;5.910;2023-04-24T09:07:14;8.40;99.90
47514;DHT22;33951;51.988;5.910;2023-04-24T09:10:02;8.40;99.90
47514;DHT22;33951;51.988;5.910;2023-04-24T09:12:45;8.40;99.90
47514;DHT22;33951;51.988;5.910;2023-04-24T09:15:26;8.40;99.90
47514;DHT22;33951;51.988;5.910;2023-04-24T09:21:09;8.30;99.90
47514;DHT22;33951;51.988;5.910;2023-04-24T09:23:38;8.20;99.90
47514;DHT22;33951;51.988;5.910;2023-04-24T09:26:12;8.20;99.90
47514;DHT22;33951;51.988;5.910;2023-04-24T09:28:43;8.20;99.90
47514;DHT22;33951;51.988;5.910;2023-04-24T09:31:15;8.40;99.90
47514;DHT22;33951;51.988;5.910;2023-04-24T09:34:11;8.30;99.90
47514;DHT22;33951;51.988;5.910;2023-04-24T09:36:56;8.30;99.90
47514;DHT22;33951;51.988;5.910;2023-04-24T09:42:21;8.30;99.90
47514;DHT22;33951;51.988;5.910;2023-04-24T09:45:36;8.50;99.90
47514;DHT22;33951;51.988;5.910;2023-04-24T09:51:52;8.50;99.90
47514;DHT22;33951;51.988;5.910;2023-04-24T10:13:39;8.80;99.90
47514;DHT22;33951;51.988;5.910;2023-04-24T10:16:52;9.00;99.90
47514;DHT22;33951;51.988;5.910;2023-04-24T10:19:51;9.10;99.90
47514;DHT22;33951;51.988;5.910;2023-04-24T10:32:26;9.90;99.90
47514;DHT22;33951;51.988;5.910;2023-04-24T10:38:43;10.00;99.90
47514;DHT22;33951;51.988;5.910;2023-04-24T10:41:14;10.00;99.90
47514;DHT22;33951;51.988;5.910;2023-04-24T10:43:47;9.90;99.90
47514;DHT22;33951;51.988;5.910;2023-04-24T10:46:25;9.90;99.90
47514;DHT22;33951;51.988;5.910;2023-04-24T10:48:54;9.80;99.90
47514;DHT22;33951;51.988;5.910;2023-04-24T10:57:27;9.70;99.90
47514;DHT22;33951;51.988;5.910;2023-04-24T11:00:15;9.60;99.90
47514;DHT22;33951;51.988;5.910;2023-04-24T11:02:55;9.60;99.90
47514;DHT22;33951;51.988;5.910;2023-04-24T11:05:58;9.60;99.90
47514;DHT22;33951;51.988;5.910;2023-04-24T11:08:25;9.60;99.90
47514;DHT22;33951;51.988;5.910;2023-04-24T11:11:00;9.60;99.90
47514;DHT22;33951;51.988;5.910;2023-04-24T11:16:33;9.40;99.90
47514;DHT22;33951;51.988;5.910;2023-04-24T11:19:05;9.20;99.90
47514;DHT22;33951;51.988;5.910;2023-04-24T11:21:38;9.10;99.90
47514;DHT22;33951;51.988;5.910;2023-04-24T11:24:24;9.10;99.90
47514;DHT22;33951;51.988;5.910;2023-04-24T11:26:54;9.20;99.90
47514;DHT22;33951;51.988;5.910;2023-04-24T11:29:20;9.40;99.90
47514;DHT22;33951;51.988;5.910;2023-04-24T11:31:47;9.40;99.90
47514;DHT22;33951;51.988;5.910;2023-04-24T11:34:17;9.50;99.90
47514;DHT22;33951;51.988;5.910;2023-04-24T11:36:49;9.50;99.90
47514;DHT22;33951;51.988;5.910;2023-04-24T11:39:17;9.50;99.90
47514;DHT22;33951;51.988;5.910;2023-04-24T11:41:49;9.60;99.90
47514;DHT22;33951;51.988;5.910;2023-04-24T11:44:27;9.50;99.90
47514;DHT22;33951;51.988;5.910;2023-04-24T11:47:03;9.60;99.90
47514;DHT22;33951;51.988;5.910;2023-04-24T11:49:29;9.60;99.90
47514;DHT22;33951;51.988;5.910;2023-04-24T11:52:04;9.60;99.90
47514;DHT22;33951;51.988;5.910;2023-04-24T11:54:30;9.70;99.90
47514;DHT22;33951;51.988;5.910;2023-04-24T11:56:56;9.60;99.90
47514;DHT22;33951;51.988;5.910;2023-04-24T11:59:22;9.70;99.90
47514;DHT22;33951;51.988;5.910;2023-04-24T12:01:53;9.60;99.90
47514;DHT22;33951;51.988;5.910;2023-04-24T12:04:21;9.50;99.90
47514;DHT22;33951;51.988;5.910;2023-04-24T12:07:03;9.40;99.90
47514;DHT22;33951;51.988;5.910;2023-04-24T12:09:59;9.40;99.90
47514;DHT22;33951;51.988;5.910;2023-04-24T12:12:26;9.20;99.90
47514;DHT22;33951;51.988;5.910;2023-04-24T12:14:57;9.00;99.90
47514;DHT22;33951;51.988;5.910;2023-04-24T12:18:11;8.80;99.90
47514;DHT22;33951;51.988;5.910;2023-04-24T12:20:55;8.90;99.90
47514;DHT22;33951;51.988;5.910;2023-04-24T12:23:37;8.90;99.90
47514;DHT22;33951;51.988;5.910;2023-04-24T12:26:04;8.90;99.90
47514;DHT22;33951;51.988;5.910;2023-04-24T12:28:35;8.90;99.90
47514;DHT22;33951;51.988;5.910;2023-04-24T12:31:04;9.00;99.90
47514;DHT22;33951;51.988;5.910;2023-04-24T12:33:37;9.20;99.90
47514;DHT22;33951;51.988;5.910;2023-04-24T12:36:04;9.30;99.90
47514;DHT22;33951;51.988;5.910;2023-04-24T12:38:30;9.50;99.90
47514;DHT22;33951;51.988;5.910;2023-04-24T12:41:07;9.80;99.90
47514;DHT22;33951;51.988;5.910;2023-04-24T12:43:33;10.00;99.90
47514;DHT22;33951;51.988;5.910;2023-04-24T12:46:04;10.10;99.90
47514;DHT22;33951;51.988;5.910;2023-04-24T12:48:30;10.00;99.90
47514;DHT22;33951;51.988;5.910;2023-04-24T12:51:04;10.10;99.90
47514;DHT22;33951;51.988;5.910;2023-04-24T12:53:32;10.00;99.90
47514;DHT22;33951;51.988;5.910;2023-04-24T12:56:01;10.00;99.90
47514;DHT22;33951;51.988;5.910;2023-04-24T12:58:27;10.00;99.90
47514;DHT22;33951;51.988;5.910;2023-04-24T13:00:56;10.00;99.90
47514;DHT22;33951;51.988;5.910;2023-04-24T13:03:24;10.00;99.90
47514;DHT22;33951;51.988;5.910;2023-04-24T13:05:50;9.90;99.90
47514;DHT22;33951;51.988;5.910;2023-04-24T13:08:20;10.00;99.90
47514;DHT22;33951;51.988;5.910;2023-04-24T13:10:46;10.10;99.90
47514;DHT22;33951;51.988;5.910;2023-04-24T13:13:14;10.20;99.90
47514;DHT22;33951;51.988;5.910;2023-04-24T13:15:40;10.30;99.90
47514;DHT22;33951;51.988;5.910;2023-04-24T13:18:11;10.40;99.90
47514;DHT22;33951;51.988;5.910;2023-04-24T13:20:44;10.40;99.90
47514;DHT22;33951;51.988;5.910;2023-04-24T13:23:15;10.40;99.90
47514;DHT22;33951;51.988;5.910;2023-04-24T13:25:49;10.30;99.90
47514;DHT22;33951;51.988;5.910;2023-04-24T13:28:25;10.30;99.90
47514;DHT22;33951;51.988;5.910;2023-04-24T13:30:57;10.30;99.90
47514;DHT22;33951;51.988;5.910;2023-04-24T13:33:26;10.30;99.90
47514;DHT22;33951;51.988;5.910;2023-04-24T13:35:52;10.00;99.90
47514;DHT22;33951;51.988;5.910;2023-04-24T13:38:18;9.90;99.90
47514;DHT22;33951;51.988;5.910;2023-04-24T13:40:49;9.70;99.90
47514;DHT22;33951;51.988;5.910;2023-04-24T13:43:18;9.90;99.90
47514;DHT22;33951;51.988;5.910;2023-04-24T13:45:46;9.80;99.90
47514;DHT22;33951;51.988;5.910;2023-04-24T13:48:14;9.70;99.90
47514;DHT22;33951;51.988;5.910;2023-04-24T13:51:01;9.70;99.90
47514;DHT22;33951;51.988;5.910;2023-04-24T13:53:53;9.80;99.90
47514;DHT22;33951;51.988;5.910;2023-04-24T13:56:23;9.70;99.90
47514;DHT22;33951;51.988;5.910;2023-04-24T13:58:49;9.60;99.90
47514;DHT22;33951;51.988;5.910;2023-04-24T14:01:25;9.60;99.90
47514;DHT22;33951;51.988;5.910;2023-04-24T14:03:54;9.70;99.90
47514;DHT22;33951;51.988;5.910;2023-04-24T14:06:22;10.00;99.90
47514;DHT22;33951;51.988;5.910;2023-04-24T14:08:54;10.30;99.90
47514;DHT22;33951;51.988;5.910;2023-04-24T14:11:20;10.50;99.90
47514;DHT22;33951;51.988;5.910;2023-04-24T14:13:49;10.70;99.90
47514;DHT22;33951;51.988;5.910;2023-04-24T14:16:18;10.60;99.90
47514;DHT22;33951;51.988;5.910;2023-04-24T14:18:46;10.60;99.90
47514;DHT22;33951;51.988;5.910;2023-04-24T14:21:17;10.50;99.90
47514;DHT22;33951;51.988;5.910;2023-04-24T14:23:52;10.50;99.90
47514;DHT22;33951;51.988;5.910;2023-04-24T14:26:21;10.50;99.90
47514;DHT22;33951;51.988;5.910;2023-04-24T14:28:50;10.80;99.90
47514;DHT22;33951;51.988;5.910;2023-04-24T14:31:33;11.00;99.90
47514;DHT22;33951;51.988;5.910;2023-04-24T14:34:09;11.40;99.90
47514;DHT22;33951;51.988;5.910;2023-04-24T14:37:00;11.60;99.90
47514;DHT22;33951;51.988;5.910;2023-04-24T14:39:55;11.60;99.90
47514;DHT22;33951;51.988;5.910;2023-04-24T14:42:23;11.30;99.90
47514;DHT22;33951;51.988;5.910;2023-04-24T14:45:17;11.10;99.90
47514;DHT22;33951;51.988;5.910;2023-04-24T14:48:03;10.70;99.90
47514;DHT22;33951;51.988;5.910;2023-04-24T14:50:35;10.70;99.90
47514;DHT22;33951;51.988;5.910;2023-04-24T14:53:03;10.50;99.90
47514;DHT22;33951;51.988;5.910;2023-04-24T14:55:29;10.40;99.90
47514;DHT22;33951;51.988;5.910;2023-04-24T14:57:58;10.50;99.90
47514;DHT22;33951;51.988;5.910;2023-04-24T15:00:45;10.60;99.90
47514;DHT22;33951;51.988;5.910;2023-04-24T15:03:17;10.60;99.90
47514;DHT22;33951;51.988;5.910;2023-04-24T15:05:56;10.50;99.90
47514;DHT22;33951;51.988;5.910;2023-04-24T15:09:08;10.40;99.90
47514;DHT22;33951;51.988;5.910;2023-04-24T15:11:39;10.40;99.90
47514;DHT22;33951;51.988;5.910;2023-04-24T15:14:40;10.40;99.90
47514;DHT22;33951;51.988;5.910;2023-04-24T15:17:28;10.40;99.90
47514;DHT22;33951;51.988;5.910;2023-04-24T15:20:12;10.40;99.90
47514;DHT22;33951;51.988;5.910;2023-04-24T15:25:47;10.40;99.90
47514;DHT22;33951;51.988;5.910;2023-04-24T15:28:42;10.50;99.90
47514;DHT22;33951;51.988;5.910;2023-04-24T15:31:34;10.40;99.90
47514;DHT22;33951;51.988;5.910;2023-04-24T15:37:30;10.20;99.90
47514;DHT22;33951;51.988;5.910;2023-04-24T15:40:09;10.30;99.90
47514;DHT22;33951;51.988;5.910;2023-04-24T15:43:11;10.40;99.90
47514;DHT22;33951;51.988;5.910;2023-04-24T15:49:25;10.50;99.90
47514;DHT22;33951;51.988;5.910;2023-04-24T15:52:23;10.70;99.90
47514;DHT22;33951;51.988;5.910;2023-04-24T15:55:27;10.70;99.90
47514;DHT22;33951;51.988;5.910;2023-04-24T15:58:20;10.70;99.90
47514;DHT22;33951;51.988;5.910;2023-04-24T16:01:01;10.50;99.90
47514;DHT22;33951;51.988;5.910;2023-04-24T16:06:55;10.30;99.90
47514;DHT22;33951;51.988;5.910;2023-04-24T16:23:28;9.90;99.90
47514;DHT22;33951;51.988;5.910;2023-04-24T16:43:18;10.10;99.90
47514;DHT22;33951;51.988;5.910;2023-04-24T17:00:41;10.10;99.90
47514;DHT22;33951;51.988;5.910;2023-04-24T17:07:02;10.60;99.90
47514;DHT22;33951;51.988;5.910;2023-04-24T17:20:11;11.20;99.90
47514;DHT22;33951;51.988;5.910;2023-04-24T17:26:42;10.50;99.90
47514;DHT22;33951;51.988;5.910;2023-04-24T17:30:12;10.30;99.90
47514;DHT22;33951;51.988;5.910;2023-04-24T18:07:30;9.60;99.90
47514;DHT22;33951;51.988;5.910;2023-04-24T18:28:09;9.00;99.90
47514;DHT22;33951;51.988;5.910;2023-04-24T19:02:44;8.40;99.90
47514;DHT22;33951;51.988;5.910;2023-04-24T19:45:46;8.10;99.90
47514;DHT22;33951;51.988;5.910;2023-04-24T20:12:29;8.10;99.90
47514;DHT22;33951;51.988;5.910;2023-04-24T20:19:06;7.90;99.90
47514;DHT22;33951;51.988;5.910;2023-04-24T20:22:13;7.90;99.90
47514;DHT22;33951;51.988;5.910;2023-04-24T20:25:33;7.90;99.90
47514;DHT22;33951;51.988;5.910;2023-04-24T21:23:18;7.20;99.90
47514;DHT22;33951;51.988;5.910;2023-04-24T22:48:58;7.00;99.90
